Seneimaru — JG5357 — position and weather

sailwx.info

Track history (hours):
 
Tides and Currents Weather Stations Pressure Air Temp Water Temp Dewpoint Dewpoint Depression Visibility Wind Speed Wind Dir Waves Ship Positions

Seneimaru

Last reported at 2015-May-26 13:08 UTC. Time now 2015-May-27 05:52 UTC.
Position N 34°13' E 140°10'.

Length 72 m; draft 5.9 m.

Type: Cargo ship. MMSI: 431100477.

Date/timePositionNaut miles runAvg speedWind from/ knotsBaromVisibWave heightAir tempDewpointWater temp
2015-May-26 13:08N 34°13' E 140°10'2211.6
2015-May-26 11:16N 34°33' E 139°58'911.4
2015-May-26 10:31N 34°40' E 139°54'1210.9
2015-May-26 09:23N 34°51' E 139°47'910.4
2015-May-26 08:33N 34°59' E 139°43'1111.2
2015-May-26 07:33N 35°10' E 139°46'1111.2
2015-May-26 06:33N 35°21' E 139°43'10 9.9
2015-May-26 05:33N 35°30' E 139°47'3 3.0
2015-May-26 04:33N 35°30' E 139°43'0 0.0
2015-May-26 03:33N 35°30' E 139°43'0 0.0
2015-May-26 02:33N 35°30' E 139°43'0 0.0
2015-May-26 01:33N 35°30' E 139°43'0 0.0
2015-May-26 00:33N 35°30' E 139°43'0 0.0
2015-May-25 23:33N 35°30' E 139°43'0 0.0
2015-May-25 22:33N 35°30' E 139°43'0 0.0
2015-May-25 21:33N 35°30' E 139°43'1 1.3
2015-May-25 20:33N 35°29' E 139°42'6 5.8
2015-May-25 19:33N 35°23' E 139°44'0 0.0
2015-May-25 18:33N 35°23' E 139°44'0 0.0
2015-May-25 17:33N 35°23' E 139°44'0 0.0
2015-May-25 16:33N 35°23' E 139°44'0 0.0
2015-May-25 15:33N 35°23' E 139°44'0 0.0
2015-May-25 14:33N 35°23' E 139°44'0 0.0
2015-May-25 13:33N 35°23' E 139°44'0 0.0
2015-May-25 12:33N 35°23' E 139°44'0 0.0
2015-May-25 11:33N 35°23' E 139°44'0 0.0
2015-May-25 10:33N 35°23' E 139°44'0 0.0
2015-May-25 09:33N 35°24' E 139°44'0 0.0
2015-May-25 08:33N 35°24' E 139°44'0 0.0
2015-May-25 07:33N 35°24' E 139°44'0 0.0
2015-May-25 06:33N 35°24' E 139°44'0 0.0
2015-May-25 05:33N 35°23' E 139°44'0 0.0
2015-May-25 04:33N 35°23' E 139°44'0 0.0
2015-May-25 03:33N 35°23' E 139°44'0 0.0
2015-May-25 02:33N 35°23' E 139°44'0 0.0
2015-May-25 01:33N 35°23' E 139°44'0 0.0
2015-May-25 00:33N 35°23' E 139°44'0 0.0
2015-May-24 23:33N 35°23' E 139°44'0 0.0
2015-May-24 22:33N 35°23' E 139°44'0 0.1
2015-May-24 21:33N 35°23' E 139°44'1110.8
2015-May-24 20:33N 35°13' E 139°47'1211.6
2015-May-24 19:33N 35°01' E 139°44'7 0.2
2015-May-23 11:33N 34°54' E 139°45'1110.6
2015-May-23 10:33N 35°05' E 139°44'1110.8
2015-May-23 09:33N 35°16' E 139°46'10 9.7
2015-May-23 08:33N 35°25' E 139°44'5 4.7
2015-May-23 07:33N 35°30' E 139°43'0 0.4
2015-May-23 06:33N 35°30' E 139°43'0 0.0
2015-May-23 05:33N 35°30' E 139°43'0 0.0
2015-May-23 04:33N 35°30' E 139°43'2 1.8
2015-May-23 03:33N 35°28' E 139°42'5 5.1
2015-May-23 02:31N 35°24' E 139°44'0 0.0
2015-May-23 01:31N 35°24' E 139°44'0 0.1
2015-May-23 00:28N 35°23' E 139°45'0 0.0
2015-May-22 23:31N 35°23' E 139°45'0 0.0
2015-May-22 22:31N 35°24' E 139°45'0 0.0
2015-May-22 21:31N 35°23' E 139°45'7 7.8
2015-May-22 20:33N 35°16' E 139°46'1211.8
2015-May-22 19:33N 35°04' E 139°45'28 0.9
2015-May-21 13:27N 34°38' E 139°56'1011.0
2015-May-21 12:33N 34°46' E 139°50'1211.2
2015-May-21 11:31N 34°57' E 139°44'1010.5
2015-May-21 10:33N 35°07' E 139°45'1010.4
2015-May-21 09:33N 35°17' E 139°45'5 5.2
2015-May-21 08:32N 35°23' E 139°44'0 0.0
2015-May-21 07:32N 35°23' E 139°44'0 0.0
2015-May-21 05:14N 35°23' E 139°44'0 0.1
2015-May-21 04:29N 35°23' E 139°44'0 0.1
2015-May-21 03:32N 35°23' E 139°44'0 0.0
2015-May-21 02:29N 35°23' E 139°44'0 0.0
2015-May-21 01:29N 35°23' E 139°44'0 0.0
2015-May-21 00:32N 35°23' E 139°44'0 0.0
2015-May-20 23:32N 35°23' E 139°44'0 0.0
2015-May-20 22:32N 35°23' E 139°44'0 0.0
2015-May-20 21:32N 35°23' E 139°44'0 0.0
2015-May-20 20:32N 35°23' E 139°44'0 0.0
2015-May-20 19:29N 35°23' E 139°44'0 0.0
2015-May-20 18:32N 35°23' E 139°44'0 0.1
2015-May-20 17:32N 35°23' E 139°44'0 0.1
2015-May-20 16:32N 35°23' E 139°44'0 0.1
2015-May-20 15:32N 35°23' E 139°44'0 0.0
2015-May-20 14:32N 35°23' E 139°44'0 0.1
2015-May-20 13:32N 35°23' E 139°44'0 0.0
2015-May-20 12:32N 35°23' E 139°44'0 0.1
2015-May-20 11:32N 35°23' E 139°44'0 0.0
2015-May-20 10:32N 35°23' E 139°44'0 0.0
2015-May-20 09:32N 35°23' E 139°44'0 0.1
2015-May-20 08:32N 35°23' E 139°44'0 0.0
2015-May-20 07:29N 35°23' E 139°44'0 0.0
2015-May-20 06:32N 35°23' E 139°44'0 0.0
2015-May-20 05:29N 35°23' E 139°44'0 0.1
2015-May-20 04:32N 35°23' E 139°44'0 0.1
2015-May-20 03:32N 35°23' E 139°44'0 0.1
2015-May-20 02:32N 35°23' E 139°44'0 0.0
2015-May-20 01:32N 35°23' E 139°44'0 0.0
2015-May-20 00:32N 35°23' E 139°44'0 0.0
2015-May-19 23:32N 35°23' E 139°44'0 0.0
2015-May-19 22:31N 35°23' E 139°44'0 0.0
2015-May-19 21:31N 35°23' E 139°44'0 0.0
2015-May-19 20:31N 35°23' E 139°44'0 0.0
2015-May-19 19:31N 35°23' E 139°44'0 0.1
2015-May-19 18:31N 35°23' E 139°44'0 0.0
2015-May-19 17:31N 35°23' E 139°44'0 0.0
2015-May-19 16:31N 35°23' E 139°44'0 0.1
2015-May-19 15:31N 35°23' E 139°44'0 0.0
2015-May-19 14:31N 35°23' E 139°44'0 0.1
2015-May-19 13:31N 35°23' E 139°44'0 0.0
2015-May-19 12:31N 35°23' E 139°44'0 0.1
2015-May-19 11:31N 35°23' E 139°44'0 0.0
2015-May-19 10:28N 35°23' E 139°44'0 0.0
2015-May-19 09:31N 35°23' E 139°44'7 6.9
2015-May-19 08:33N 35°29' E 139°48'4 4.2
2015-May-19 07:33N 35°30' E 139°43'0 0.0
2015-May-19 06:33N 35°30' E 139°43'0 0.0
2015-May-19 05:33N 35°30' E 139°43'0 0.0
2015-May-19 04:33N 35°30' E 139°43'0 0.0
2015-May-19 03:33N 35°30' E 139°43'0 0.0
2015-May-19 02:33N 35°30' E 139°43'0 0.0
2015-May-19 01:33N 35°30' E 139°43'0 0.0
2015-May-19 00:33N 35°30' E 139°43'0 0.0
2015-May-18 23:33N 35°30' E 139°43'0 0.0
2015-May-18 22:33N 35°30' E 139°43'0 0.0
2015-May-18 21:33N 35°30' E 139°43'0 0.0
2015-May-18 20:33N 35°30' E 139°43'0 0.0
2015-May-18 19:33N 35°30' E 139°43'0 0.0
2015-May-18 18:33N 35°30' E 139°43'0 0.0
2015-May-18 17:33N 35°30' E 139°43'0 0.0
2015-May-18 16:33N 35°30' E 139°43'0 0.0
2015-May-18 15:33N 35°30' E 139°43'0 0.0
2015-May-18 14:33N 35°30' E 139°43'0 0.0
2015-May-18 13:33N 35°30' E 139°43'0 0.0
2015-May-18 12:33N 35°30' E 139°43'0 0.0
2015-May-18 11:33N 35°30' E 139°43'0 0.0
2015-May-18 10:33N 35°30' E 139°43'0 0.0
2015-May-18 09:33N 35°30' E 139°43'0 0.0
2015-May-18 08:33N 35°30' E 139°43'0 0.0
2015-May-18 07:33N 35°30' E 139°43'0 0.0
2015-May-18 06:33N 35°30' E 139°43'0 0.0
2015-May-18 05:33N 35°30' E 139°43'0 0.0
2015-May-18 04:33N 35°30' E 139°43'0 0.0
2015-May-18 03:33N 35°30' E 139°43'0 0.0
2015-May-18 02:33N 35°30' E 139°43'0 0.0
2015-May-18 01:33N 35°30' E 139°43'0 0.0
2015-May-18 00:33N 35°30' E 139°43'0 0.0
2015-May-17 23:33N 35°30' E 139°43'0 0.0
2015-May-17 22:33N 35°30' E 139°43'3 2.5
2015-May-17 21:33N 35°28' E 139°43'5 4.9
2015-May-17 20:33N 35°23' E 139°45'0 0.0
2015-May-17 19:33N 35°23' E 139°45'0 0.1
2015-May-17 18:33N 35°23' E 139°45'0 0.0
2015-May-17 17:33N 35°23' E 139°45'0 0.1
2015-May-17 16:33N 35°23' E 139°45'0 0.1
2015-May-17 15:33N 35°23' E 139°45'1 1.1
2015-May-17 14:33N 35°22' E 139°45'1110.6
2015-May-17 13:31N 35°11' E 139°47'1412.2
2015-May-17 12:23N 34°58' E 139°43'  
Track history (hours):
 
Tides and Currents Weather Stations Pressure Air Temp Water Temp Dewpoint Dewpoint Depression Visibility Wind Speed Wind Dir Waves Ship Positions

Seneimaru

Last reported at 2015-May-26 13:08 UTC. Time now 2015-May-27 05:52 UTC.
Position N 34°13' E 140°10'.

Length 72 m; draft 5.9 m.

Type: Cargo ship. MMSI: 431100477.

Date/timePositionNaut miles runAvg speedWind from/ knotsBaromVisibWave heightAir tempDewpointWater temp
2015-May-26 13:08N 34°13' E 140°10'2211.6
2015-May-26 11:16N 34°33' E 139°58'911.4
2015-May-26 10:31N 34°40' E 139°54'1210.9
2015-May-26 09:23N 34°51' E 139°47'910.4
2015-May-26 08:33N 34°59' E 139°43'1111.2
2015-May-26 07:33N 35°10' E 139°46'1111.2
2015-May-26 06:33N 35°21' E 139°43'10 9.9
2015-May-26 05:33N 35°30' E 139°47'3 3.0
2015-May-26 04:33N 35°30' E 139°43'0 0.0
2015-May-26 03:33N 35°30' E 139°43'0 0.0
2015-May-26 02:33N 35°30' E 139°43'0 0.0
2015-May-26 01:33N 35°30' E 139°43'0 0.0
2015-May-26 00:33N 35°30' E 139°43'0 0.0
2015-May-25 23:33N 35°30' E 139°43'0 0.0
2015-May-25 22:33N 35°30' E 139°43'0 0.0
2015-May-25 21:33N 35°30' E 139°43'1 1.3
2015-May-25 20:33N 35°29' E 139°42'6 5.8
2015-May-25 19:33N 35°23' E 139°44'0 0.0
2015-May-25 18:33N 35°23' E 139°44'0 0.0
2015-May-25 17:33N 35°23' E 139°44'0 0.0
2015-May-25 16:33N 35°23' E 139°44'0 0.0
2015-May-25 15:33N 35°23' E 139°44'0 0.0
2015-May-25 14:33N 35°23' E 139°44'0 0.0
2015-May-25 13:33N 35°23' E 139°44'0 0.0
2015-May-25 12:33N 35°23' E 139°44'0 0.0
2015-May-25 11:33N 35°23' E 139°44'0 0.0
2015-May-25 10:33N 35°23' E 139°44'0 0.0
2015-May-25 09:33N 35°24' E 139°44'0 0.0
2015-May-25 08:33N 35°24' E 139°44'0 0.0
2015-May-25 07:33N 35°24' E 139°44'0 0.0
2015-May-25 06:33N 35°24' E 139°44'0 0.0
2015-May-25 05:33N 35°23' E 139°44'0 0.0
2015-May-25 04:33N 35°23' E 139°44'0 0.0
2015-May-25 03:33N 35°23' E 139°44'0 0.0
2015-May-25 02:33N 35°23' E 139°44'0 0.0
2015-May-25 01:33N 35°23' E 139°44'0 0.0
2015-May-25 00:33N 35°23' E 139°44'0 0.0
2015-May-24 23:33N 35°23' E 139°44'0 0.0
2015-May-24 22:33N 35°23' E 139°44'0 0.1
2015-May-24 21:33N 35°23' E 139°44'1110.8
2015-May-24 20:33N 35°13' E 139°47'1211.6
2015-May-24 19:33N 35°01' E 139°44'7 0.2
2015-May-23 11:33N 34°54' E 139°45'1110.6
2015-May-23 10:33N 35°05' E 139°44'1110.8
2015-May-23 09:33N 35°16' E 139°46'10 9.7
2015-May-23 08:33N 35°25' E 139°44'5 4.7
2015-May-23 07:33N 35°30' E 139°43'0 0.4
2015-May-23 06:33N 35°30' E 139°43'0 0.0
2015-May-23 05:33N 35°30' E 139°43'0 0.0
2015-May-23 04:33N 35°30' E 139°43'2 1.8
2015-May-23 03:33N 35°28' E 139°42'5 5.1
2015-May-23 02:31N 35°24' E 139°44'0 0.0
2015-May-23 01:31N 35°24' E 139°44'0 0.1
2015-May-23 00:28N 35°23' E 139°45'0 0.0
2015-May-22 23:31N 35°23' E 139°45'0 0.0
2015-May-22 22:31N 35°24' E 139°45'0 0.0
2015-May-22 21:31N 35°23' E 139°45'7 7.8
2015-May-22 20:33N 35°16' E 139°46'1211.8
2015-May-22 19:33N 35°04' E 139°45'28 0.9
2015-May-21 13:27N 34°38' E 139°56'1011.0
2015-May-21 12:33N 34°46' E 139°50'1211.2
2015-May-21 11:31N 34°57' E 139°44'1010.5
2015-May-21 10:33N 35°07' E 139°45'1010.4
2015-May-21 09:33N 35°17' E 139°45'5 5.2
2015-May-21 08:32N 35°23' E 139°44'0 0.0
2015-May-21 07:32N 35°23' E 139°44'0 0.0
2015-May-21 05:14N 35°23' E 139°44'0 0.1
2015-May-21 04:29N 35°23' E 139°44'0 0.1
2015-May-21 03:32N 35°23' E 139°44'0 0.0
2015-May-21 02:29N 35°23' E 139°44'0 0.0
2015-May-21 01:29N 35°23' E 139°44'0 0.0
2015-May-21 00:32N 35°23' E 139°44'0 0.0
2015-May-20 23:32N 35°23' E 139°44'0 0.0
2015-May-20 22:32N 35°23' E 139°44'0 0.0
2015-May-20 21:32N 35°23' E 139°44'0 0.0
2015-May-20 20:32N 35°23' E 139°44'0 0.0
2015-May-20 19:29N 35°23' E 139°44'0 0.0
2015-May-20 18:32N 35°23' E 139°44'0 0.1
2015-May-20 17:32N 35°23' E 139°44'0 0.1
2015-May-20 16:32N 35°23' E 139°44'0 0.1
2015-May-20 15:32N 35°23' E 139°44'0 0.0
2015-May-20 14:32N 35°23' E 139°44'0 0.1
2015-May-20 13:32N 35°23' E 139°44'0 0.0
2015-May-20 12:32N 35°23' E 139°44'0 0.1
2015-May-20 11:32N 35°23' E 139°44'0 0.0
2015-May-20 10:32N 35°23' E 139°44'0 0.0
2015-May-20 09:32N 35°23' E 139°44'0 0.1
2015-May-20 08:32N 35°23' E 139°44'0 0.0
2015-May-20 07:29N 35°23' E 139°44'0 0.0
2015-May-20 06:32N 35°23' E 139°44'0 0.0
2015-May-20 05:29N 35°23' E 139°44'0 0.1
2015-May-20 04:32N 35°23' E 139°44'0 0.1
2015-May-20 03:32N 35°23' E 139°44'0 0.1
2015-May-20 02:32N 35°23' E 139°44'0 0.0
2015-May-20 01:32N 35°23' E 139°44'0 0.0
2015-May-20 00:32N 35°23' E 139°44'0 0.0
2015-May-19 23:32N 35°23' E 139°44'0 0.0
2015-May-19 22:31N 35°23' E 139°44'0 0.0
2015-May-19 21:31N 35°23' E 139°44'0 0.0
2015-May-19 20:31N 35°23' E 139°44'0 0.0
2015-May-19 19:31N 35°23' E 139°44'0 0.1
2015-May-19 18:31N 35°23' E 139°44'0 0.0
2015-May-19 17:31N 35°23' E 139°44'0 0.0
2015-May-19 16:31N 35°23' E 139°44'0 0.1
2015-May-19 15:31N 35°23' E 139°44'0 0.0
2015-May-19 14:31N 35°23' E 139°44'0 0.1
2015-May-19 13:31N 35°23' E 139°44'0 0.0
2015-May-19 12:31N 35°23' E 139°44'0 0.1
2015-May-19 11:31N 35°23' E 139°44'0 0.0
2015-May-19 10:28N 35°23' E 139°44'0 0.0
2015-May-19 09:31N 35°23' E 139°44'7 6.9
2015-May-19 08:33N 35°29' E 139°48'4 4.2
2015-May-19 07:33N 35°30' E 139°43'0 0.0
2015-May-19 06:33N 35°30' E 139°43'0 0.0
2015-May-19 05:33N 35°30' E 139°43'0 0.0
2015-May-19 04:33N 35°30' E 139°43'0 0.0
2015-May-19 03:33N 35°30' E 139°43'0 0.0
2015-May-19 02:33N 35°30' E 139°43'0 0.0
2015-May-19 01:33N 35°30' E 139°43'0 0.0
2015-May-19 00:33N 35°30' E 139°43'0 0.0
2015-May-18 23:33N 35°30' E 139°43'0 0.0
2015-May-18 22:33N 35°30' E 139°43'0 0.0
2015-May-18 21:33N 35°30' E 139°43'0 0.0
2015-May-18 20:33N 35°30' E 139°43'0 0.0
2015-May-18 19:33N 35°30' E 139°43'0 0.0
2015-May-18 18:33N 35°30' E 139°43'0 0.0
2015-May-18 17:33N 35°30' E 139°43'0 0.0
2015-May-18 16:33N 35°30' E 139°43'0 0.0
2015-May-18 15:33N 35°30' E 139°43'0 0.0
2015-May-18 14:33N 35°30' E 139°43'0 0.0
2015-May-18 13:33N 35°30' E 139°43'0 0.0
2015-May-18 12:33N 35°30' E 139°43'0 0.0
2015-May-18 11:33N 35°30' E 139°43'0 0.0
2015-May-18 10:33N 35°30' E 139°43'0 0.0
2015-May-18 09:33N 35°30' E 139°43'0 0.0
2015-May-18 08:33N 35°30' E 139°43'0 0.0
2015-May-18 07:33N 35°30' E 139°43'0 0.0
2015-May-18 06:33N 35°30' E 139°43'0 0.0
2015-May-18 05:33N 35°30' E 139°43'0 0.0
2015-May-18 04:33N 35°30' E 139°43'0 0.0
2015-May-18 03:33N 35°30' E 139°43'0 0.0
2015-May-18 02:33N 35°30' E 139°43'0 0.0
2015-May-18 01:33N 35°30' E 139°43'0 0.0
2015-May-18 00:33N 35°30' E 139°43'0 0.0
2015-May-17 23:33N 35°30' E 139°43'0 0.0
2015-May-17 22:33N 35°30' E 139°43'3 2.5
2015-May-17 21:33N 35°28' E 139°43'5 4.9
2015-May-17 20:33N 35°23' E 139°45'0 0.0
2015-May-17 19:33N 35°23' E 139°45'0 0.1
2015-May-17 18:33N 35°23' E 139°45'0 0.0
2015-May-17 17:33N 35°23' E 139°45'0 0.1
2015-May-17 16:33N 35°23' E 139°45'0 0.1
2015-May-17 15:33N 35°23' E 139°45'1 1.1
2015-May-17 14:33N 35°22' E 139°45'1110.6
2015-May-17 13:31N 35°11' E 139°47'1412.2
2015-May-17 12:23N 34°58' E 139°43'  

Dump ship's entire track history